createdAt,value
2017-12-21T00:00:56.641Z,8.43
2017-12-21T00:03:24.230Z,8.30
2017-12-21T00:05:54.202Z,6.43
2017-12-21T00:08:21.785Z,5.80
2017-12-21T00:10:49.359Z,14.60
2017-12-21T00:13:16.966Z,7.70
2017-12-21T00:15:45.297Z,4.77
2017-12-21T00:18:12.871Z,5.80
2017-12-21T00:20:41.236Z,48.70
2017-12-21T00:23:09.574Z,36.23
2017-12-21T00:25:37.157Z,7.80
2017-12-21T00:28:04.732Z,35.57
2017-12-21T00:30:32.330Z,8.27
2017-12-21T00:32:59.897Z,5.20
2017-12-21T00:35:27.484Z,8.87
2017-12-21T00:37:55.053Z,8.00
2017-12-21T00:40:22.651Z,4.27
2017-12-21T00:42:50.214Z,5.70
2017-12-21T00:45:17.811Z,4.63
2017-12-21T00:47:45.390Z,4.80
2017-12-21T00:50:12.974Z,8.93
2017-12-21T00:52:41.310Z,4.00
2017-12-21T00:55:08.905Z,6.60
2017-12-21T00:57:36.500Z,4.17
2017-12-21T01:00:04.091Z,5.07
2017-12-21T01:02:31.666Z,4.57
2017-12-21T01:04:59.257Z,9.07
2017-12-21T01:07:26.827Z,9.50
2017-12-21T01:09:54.419Z,9.10
2017-12-21T01:12:21.985Z,10.57
2017-12-21T01:14:49.583Z,13.60
2017-12-21T01:17:17.922Z,13.20
2017-12-21T01:19:45.517Z,11.03
2017-12-21T01:22:13.086Z,11.47
2017-12-21T01:24:40.687Z,12.07
2017-12-21T01:27:08.262Z,10.97
2017-12-21T01:29:35.854Z,10.80
2017-12-21T01:32:04.196Z,15.33
2017-12-21T01:34:31.786Z,12.23
2017-12-21T01:36:59.356Z,13.50
2017-12-21T01:39:26.931Z,12.20
2017-12-21T01:41:54.526Z,10.37
2017-12-21T01:44:22.110Z,14.00
2017-12-21T01:46:49.711Z,13.43
2017-12-21T01:49:17.285Z,13.87
2017-12-21T01:51:44.869Z,13.63
2017-12-21T01:54:12.443Z,12.37
2017-12-21T01:56:40.025Z,16.20
2017-12-21T01:59:08.359Z,12.53
2017-12-21T02:01:35.946Z,16.70
2017-12-21T02:04:03.521Z,12.17
2017-12-21T02:06:31.118Z,33.80
2017-12-21T02:08:58.694Z,12.83
2017-12-21T02:11:26.289Z,44.27
2017-12-21T02:13:54.630Z,25.30
2017-12-21T02:16:22.234Z,37.93
2017-12-21T02:18:49.808Z,49.67
2017-12-21T02:21:17.401Z,31.60
2017-12-21T02:23:44.979Z,70.93
2017-12-21T02:26:12.583Z,33.07
2017-12-21T02:28:40.158Z,16.17
2017-12-21T02:31:07.834Z,11.37
2017-12-21T02:33:35.405Z,15.10
2017-12-21T02:36:03.002Z,11.27
2017-12-21T02:38:31.350Z,16.73
2017-12-21T02:40:58.991Z,8.40
2017-12-21T02:43:26.571Z,9.47
2017-12-21T02:45:54.142Z,7.90
2017-12-21T02:48:21.743Z,10.40
2017-12-21T02:50:49.317Z,9.07
2017-12-21T02:53:17.686Z,9.30
2017-12-21T02:55:45.256Z,9.57
2017-12-21T02:58:12.855Z,10.20
2017-12-21T03:00:40.423Z,15.27
2017-12-21T03:03:08.018Z,13.30
2017-12-21T03:05:35.594Z,13.63
2017-12-21T03:08:03.181Z,10.80
2017-12-21T03:10:30.758Z,13.63
2017-12-21T03:12:58.357Z,17.03
2017-12-21T03:15:25.927Z,15.83
2017-12-21T03:17:53.517Z,15.60
2017-12-21T03:20:21.082Z,19.43
2017-12-21T03:22:48.683Z,12.33
2017-12-21T03:25:16.257Z,12.10
2017-12-21T03:27:43.858Z,14.27
2017-12-21T03:30:11.433Z,12.90
2017-12-21T03:32:39.803Z,12.23
2017-12-21T03:35:07.361Z,9.73
2017-12-21T03:37:34.950Z,10.90
2017-12-21T03:40:03.291Z,12.40
2017-12-21T03:42:30.881Z,13.77
2017-12-21T03:44:58.451Z,12.50
2017-12-21T03:47:26.050Z,13.20
2017-12-21T03:49:53.618Z,11.20
2017-12-21T03:52:21.231Z,15.50
2017-12-21T03:54:48.807Z,12.73
2017-12-21T03:57:16.378Z,10.97
2017-12-21T03:59:43.971Z,9.50
2017-12-21T04:02:11.545Z,14.40
2017-12-21T04:04:39.893Z,10.03
2017-12-21T04:07:07.466Z,16.77
2017-12-21T04:09:35.072Z,13.60
2017-12-21T04:12:02.642Z,13.50
2017-12-21T04:14:30.239Z,15.87
2017-12-21T04:16:57.818Z,13.43
2017-12-21T04:19:25.419Z,18.03
2017-12-21T04:21:53.000Z,19.07
2017-12-21T04:24:20.602Z,17.57
2017-12-21T04:26:48.938Z,17.17
2017-12-21T04:29:16.533Z,17.00
2017-12-21T04:31:44.870Z,16.43
2017-12-21T04:34:12.475Z,16.43
2017-12-21T04:36:40.819Z,15.67
2017-12-21T04:39:08.418Z,13.70
2017-12-21T04:41:36.766Z,26.53
2017-12-21T04:44:04.381Z,10.53
2017-12-21T04:46:31.944Z,12.00
2017-12-21T04:48:59.533Z,11.63
2017-12-21T04:51:27.099Z,14.13
2017-12-21T04:53:54.701Z,18.03
2017-12-21T04:56:22.281Z,13.60
2017-12-21T04:58:49.874Z,12.10
2017-12-21T05:01:17.443Z,17.50
2017-12-21T05:03:45.042Z,13.60
2017-12-21T05:06:12.613Z,13.33
2017-12-21T05:08:40.252Z,13.40
2017-12-21T05:11:09.082Z,13.80
2017-12-21T05:13:36.707Z,16.57
2017-12-21T05:16:04.387Z,10.73
2017-12-21T05:18:32.810Z,9.50
2017-12-21T05:21:00.588Z,8.80
2017-12-21T05:23:28.936Z,10.23
2017-12-21T05:25:56.534Z,12.97
2017-12-21T05:28:24.917Z,8.10
2017-12-21T05:30:53.281Z,12.40
2017-12-21T05:33:21.615Z,9.20
2017-12-21T05:35:49.206Z,9.93
2017-12-21T05:38:16.781Z,11.40
2017-12-21T05:40:44.393Z,13.07
2017-12-21T05:43:11.977Z,11.80
2017-12-21T05:45:39.570Z,9.67
2017-12-21T05:48:07.144Z,8.17
2017-12-21T05:50:34.822Z,9.40
2017-12-21T05:53:02.392Z,9.73
2017-12-21T05:55:29.983Z,7.10
2017-12-21T05:57:57.548Z,8.67
2017-12-21T06:00:25.139Z,7.73
2017-12-21T06:02:52.700Z,8.33
2017-12-21T06:05:20.298Z,9.63
2017-12-21T06:07:47.861Z,7.90
2017-12-21T06:10:15.518Z,12.10
2017-12-21T06:12:43.086Z,14.80
2017-12-21T06:15:10.677Z,16.43
2017-12-21T06:17:38.257Z,13.00
2017-12-21T06:20:05.853Z,16.13
2017-12-21T06:22:33.422Z,15.63
2017-12-21T06:25:00.993Z,18.97
2017-12-21T06:27:28.590Z,17.90
2017-12-21T06:29:56.168Z,21.20
2017-12-21T06:32:23.774Z,23.20
2017-12-21T06:34:51.351Z,18.70
2017-12-21T06:37:19.723Z,35.37
2017-12-21T06:39:47.308Z,23.63
2017-12-21T06:42:14.911Z,23.60
2017-12-21T06:44:42.491Z,17.60
2017-12-21T06:47:10.853Z,13.13
2017-12-21T06:49:38.426Z,13.37
2017-12-21T06:52:06.044Z,12.00
2017-12-21T06:54:33.618Z,13.73
2017-12-21T06:57:01.220Z,15.90
2017-12-21T06:59:29.554Z,11.80
2017-12-21T07:01:57.150Z,15.43
2017-12-21T07:04:25.477Z,17.03
2017-12-21T07:06:53.065Z,15.93
2017-12-21T07:09:20.629Z,13.23
2017-12-21T07:11:48.213Z,14.20
2017-12-21T07:14:16.560Z,17.23
2017-12-21T07:16:44.148Z,12.20
2017-12-21T07:19:12.486Z,16.20
2017-12-21T07:21:40.085Z,11.90
2017-12-21T07:24:08.413Z,9.03
2017-12-21T07:26:36.007Z,7.23
2017-12-21T07:29:04.342Z,9.10
2017-12-21T07:31:31.945Z,10.83
2017-12-21T07:33:59.548Z,11.40
2017-12-21T07:36:27.142Z,10.90
2017-12-21T07:38:54.707Z,12.83
2017-12-21T07:41:22.275Z,9.83
2017-12-21T07:43:49.871Z,8.40
2017-12-21T07:46:17.444Z,10.70
2017-12-21T07:48:45.043Z,10.70
2017-12-21T07:51:12.619Z,12.37
2017-12-21T07:53:40.206Z,11.50
2017-12-21T07:56:07.776Z,9.57
2017-12-21T07:58:35.366Z,10.73
2017-12-21T08:01:02.986Z,10.60
2017-12-21T08:03:30.579Z,10.10
2017-12-21T08:05:58.150Z,11.03
2017-12-21T08:08:25.742Z,9.90
2017-12-21T08:10:53.321Z,9.10
2017-12-21T08:13:20.914Z,10.10
2017-12-21T08:15:48.484Z,14.77
2017-12-21T08:18:16.071Z,8.17
2017-12-21T08:20:44.414Z,10.97
2017-12-21T08:23:12.002Z,9.67
2017-12-21T08:25:39.571Z,9.93
2017-12-21T08:28:07.923Z,7.43
2017-12-21T08:30:35.500Z,8.50
2017-12-21T08:33:03.107Z,8.20
2017-12-21T08:35:30.678Z,9.37
2017-12-21T08:37:58.274Z,10.10
2017-12-21T08:40:25.842Z,11.40
2017-12-21T08:42:54.202Z,11.77
2017-12-21T08:45:21.782Z,11.03
2017-12-21T08:47:49.407Z,7.73
2017-12-21T08:50:16.979Z,14.10
2017-12-21T08:52:44.587Z,15.10
2017-12-21T08:55:12.160Z,12.57
2017-12-21T08:57:39.726Z,12.30
2017-12-21T09:00:07.315Z,14.83
2017-12-21T09:02:34.894Z,11.73
2017-12-21T09:05:03.253Z,10.60
2017-12-21T09:07:30.826Z,11.40
2017-12-21T09:09:58.414Z,6.50
2017-12-21T09:12:25.990Z,6.00
2017-12-21T09:14:53.578Z,9.47
2017-12-21T09:17:21.220Z,7.37
2017-12-21T09:19:48.823Z,7.60
2017-12-21T09:22:17.197Z,14.10
2017-12-21T09:24:45.599Z,6.73
2017-12-21T09:27:13.204Z,11.07
2017-12-21T09:29:40.802Z,9.17
2017-12-21T09:32:09.130Z,9.93
2017-12-21T09:34:36.718Z,8.77
2017-12-21T09:37:04.287Z,7.63
2017-12-21T09:39:31.902Z,7.93
2017-12-21T09:41:59.466Z,7.67
2017-12-21T09:44:27.078Z,8.33
2017-12-21T09:46:55.454Z,9.13
2017-12-21T09:49:23.824Z,10.70
2017-12-21T09:51:51.389Z,7.83
2017-12-21T09:54:19.759Z,11.67
2017-12-21T09:56:47.338Z,11.53
2017-12-21T09:59:15.690Z,8.47
2017-12-21T10:01:43.260Z,9.13
2017-12-21T10:04:11.637Z,10.30
2017-12-21T10:06:39.976Z,9.87
2017-12-21T10:09:07.543Z,6.67
2017-12-21T10:11:35.138Z,5.37
2017-12-21T10:14:03.479Z,7.93
2017-12-21T10:16:31.068Z,8.83
2017-12-21T10:18:59.417Z,8.97
2017-12-21T10:21:27.023Z,10.13
2017-12-21T10:23:55.360Z,7.07
2017-12-21T10:26:22.955Z,8.00
2017-12-21T10:28:51.408Z,12.83
2017-12-21T10:31:19.777Z,10.73
2017-12-21T10:33:47.347Z,8.90
2017-12-21T10:36:15.170Z,7.23
2017-12-21T10:38:43.562Z,7.07
2017-12-21T10:41:11.184Z,9.67
2017-12-21T10:43:38.758Z,7.70
2017-12-21T10:46:06.382Z,8.97
2017-12-21T10:48:34.742Z,12.70
2017-12-21T10:51:02.360Z,7.00
2017-12-21T10:53:29.926Z,8.63
2017-12-21T10:55:58.278Z,11.37
2017-12-21T10:58:25.845Z,6.77
2017-12-21T11:00:53.437Z,6.50
2017-12-21T11:03:21.022Z,7.00
2017-12-21T11:05:48.610Z,7.53
2017-12-21T11:08:16.915Z,4.87
2017-12-21T11:10:44.585Z,9.30
2017-12-21T11:13:12.168Z,7.57
2017-12-21T11:15:39.763Z,6.87
2017-12-21T11:18:07.351Z,9.20
2017-12-21T11:20:34.943Z,7.17
2017-12-21T11:23:02.514Z,11.90
2017-12-21T11:25:30.110Z,10.53
2017-12-21T11:27:57.696Z,12.70
2017-12-21T11:30:25.355Z,12.37
2017-12-21T11:32:53.013Z,8.97
2017-12-21T11:35:20.683Z,9.33
2017-12-21T11:37:48.246Z,8.77
2017-12-21T11:40:15.870Z,6.83
2017-12-21T11:42:43.501Z,9.80
2017-12-21T11:45:11.087Z,8.03
2017-12-21T11:47:38.674Z,7.60
2017-12-21T11:50:06.495Z,6.77
2017-12-21T11:52:34.852Z,9.20
2017-12-21T11:55:02.426Z,6.87
2017-12-21T11:57:30.015Z,8.73
2017-12-21T11:59:57.592Z,9.00
2017-12-21T12:02:25.178Z,8.97
2017-12-21T12:04:52.746Z,10.20
2017-12-21T12:07:20.350Z,9.13
2017-12-21T12:09:47.923Z,10.73
2017-12-21T12:12:15.515Z,9.30
2017-12-21T12:14:43.083Z,17.33
2017-12-21T12:17:10.674Z,7.93
2017-12-21T12:19:39.014Z,10.60
2017-12-21T12:22:06.598Z,8.60
2017-12-21T12:24:34.196Z,9.57
2017-12-21T12:27:01.815Z,6.97
2017-12-21T12:29:30.154Z,7.30
2017-12-21T12:31:57.746Z,8.90
2017-12-21T12:34:25.323Z,7.53
2017-12-21T12:36:52.933Z,5.30
2017-12-21T12:39:20.497Z,6.30
2017-12-21T12:41:48.149Z,5.50
2017-12-21T12:44:15.728Z,6.57
2017-12-21T12:46:43.304Z,6.00
2017-12-21T12:49:10.899Z,8.77
2017-12-21T12:51:38.479Z,9.27
2017-12-21T12:54:06.070Z,5.80
2017-12-21T12:56:33.639Z,6.97
2017-12-21T12:59:01.227Z,7.87
2017-12-21T13:01:28.800Z,7.23
2017-12-21T13:03:56.391Z,8.13
2017-12-21T13:06:23.962Z,6.43
2017-12-21T13:08:51.561Z,8.40
2017-12-21T13:11:19.140Z,3.30
2017-12-21T13:13:46.738Z,9.40
2017-12-21T13:16:14.306Z,5.87
2017-12-21T13:18:41.896Z,5.30
2017-12-21T13:21:10.226Z,4.40
2017-12-21T13:23:37.821Z,3.57
2017-12-21T13:26:05.390Z,5.10
2017-12-21T13:28:33.750Z,4.60
2017-12-21T13:31:02.091Z,6.23
2017-12-21T13:33:29.688Z,6.87
2017-12-21T13:35:58.045Z,6.73
2017-12-21T13:38:25.672Z,6.60
2017-12-21T13:40:53.241Z,5.43
2017-12-21T13:43:20.835Z,5.47
2017-12-21T13:45:48.402Z,2.57
2017-12-21T13:48:16.035Z,7.63
2017-12-21T13:50:43.596Z,3.87
2017-12-21T13:53:11.191Z,3.10
2017-12-21T13:55:39.527Z,1.93
2017-12-21T13:58:07.117Z,2.60
2017-12-21T14:00:34.677Z,4.13
2017-12-21T14:03:03.006Z,5.67
2017-12-21T14:05:30.604Z,1.93
2017-12-21T14:07:58.173Z,5.43
2017-12-21T14:10:25.773Z,3.83
2017-12-21T14:12:54.122Z,3.50
2017-12-21T14:15:22.478Z,3.40
2017-12-21T14:17:50.051Z,3.37
2017-12-21T14:20:18.423Z,6.10
2017-12-21T14:22:46.759Z,16.00
2017-12-21T14:25:14.354Z,5.57
2017-12-21T14:27:41.919Z,4.43
2017-12-21T14:30:09.517Z,4.57
2017-12-21T14:32:37.104Z,3.93
2017-12-21T14:35:04.698Z,3.83
2017-12-21T14:37:33.031Z,11.97
2017-12-21T14:40:00.630Z,3.70
2017-12-21T14:42:28.198Z,4.40
2017-12-21T14:44:55.798Z,7.40
2017-12-21T14:47:25.412Z,8.37
2017-12-21T14:49:55.783Z,13.53
2017-12-21T14:52:26.341Z,10.73
2017-12-21T14:54:53.930Z,6.67
2017-12-21T14:57:21.506Z,11.60
2017-12-21T14:59:49.102Z,9.13
2017-12-21T15:02:17.452Z,5.40
2017-12-21T15:04:45.042Z,6.00
2017-12-21T15:07:12.619Z,15.43
2017-12-21T15:09:40.989Z,7.10
2017-12-21T15:12:08.565Z,3.20
2017-12-21T15:14:36.131Z,3.73
2017-12-21T15:17:03.731Z,3.17
2017-12-21T15:19:31.307Z,2.30
2017-12-21T15:21:59.662Z,1.60
2017-12-21T15:24:27.235Z,2.57
2017-12-21T15:26:54.822Z,2.33
2017-12-21T15:29:22.394Z,2.30
2017-12-21T15:31:49.982Z,2.60
2017-12-21T15:34:17.546Z,2.27
2017-12-21T15:36:45.130Z,2.47
2017-12-21T15:39:12.760Z,3.40
2017-12-21T15:41:42.171Z,9.23
2017-12-21T15:44:13.074Z,3.30
2017-12-21T15:46:40.811Z,2.73
2017-12-21T15:49:08.441Z,1.77
2017-12-21T15:51:36.111Z,3.00
2017-12-21T15:54:04.556Z,2.53
2017-12-21T15:56:32.152Z,3.00
2017-12-21T15:58:59.722Z,4.70
2017-12-21T16:01:28.081Z,14.17
2017-12-21T16:03:55.658Z,10.40
2017-12-21T16:06:23.251Z,5.90
2017-12-21T16:08:50.940Z,10.93
2017-12-21T16:11:18.646Z,8.63
2017-12-21T16:13:46.399Z,12.10
2017-12-21T16:16:15.074Z,13.00
2017-12-21T16:18:42.665Z,14.73
2017-12-21T16:21:10.268Z,25.13
2017-12-21T16:23:37.842Z,3.37
2017-12-21T16:26:05.431Z,6.30
2017-12-21T16:28:33.002Z,7.33
2017-12-21T16:31:00.578Z,10.83
2017-12-21T16:33:28.175Z,10.77
2017-12-21T16:35:55.744Z,5.63
2017-12-21T16:38:23.338Z,4.03
2017-12-21T16:40:50.902Z,6.73
2017-12-21T16:43:18.493Z,4.67
2017-12-21T16:45:46.070Z,4.00
2017-12-21T16:48:13.665Z,5.93
2017-12-21T16:50:41.238Z,3.67
2017-12-21T16:53:08.829Z,2.83
2017-12-21T16:55:36.403Z,4.03
2017-12-21T16:58:04.004Z,4.63
2017-12-21T17:00:31.568Z,6.90
2017-12-21T17:02:59.155Z,7.83
2017-12-21T17:05:26.726Z,4.50
2017-12-21T17:07:54.323Z,9.40
2017-12-21T17:10:22.658Z,7.90
2017-12-21T17:12:50.251Z,7.20
2017-12-21T17:15:17.823Z,6.33
2017-12-21T17:17:45.416Z,6.03
2017-12-21T17:20:13.020Z,7.10
2017-12-21T17:22:40.614Z,9.03
2017-12-21T17:25:08.182Z,10.50
2017-12-21T17:27:35.774Z,11.83
2017-12-21T17:30:03.345Z,9.00
2017-12-21T17:32:30.929Z,8.00
2017-12-21T17:34:58.499Z,5.73
2017-12-21T17:37:26.861Z,5.93
2017-12-21T17:39:54.426Z,7.33
2017-12-21T17:42:22.759Z,7.57
2017-12-21T17:44:50.513Z,6.47
2017-12-21T17:47:18.081Z,4.53
2017-12-21T17:49:45.670Z,4.50
2017-12-21T17:52:13.234Z,5.13
2017-12-21T17:54:40.818Z,6.83
2017-12-21T17:57:09.155Z,10.90
2017-12-21T17:59:36.752Z,4.03
2017-12-21T18:02:05.138Z,2.77
2017-12-21T18:04:32.772Z,4.50
2017-12-21T18:07:00.347Z,5.23
2017-12-21T18:09:28.706Z,2.43
2017-12-21T18:11:56.279Z,11.20
2017-12-21T18:14:23.868Z,3.27
2017-12-21T18:16:51.476Z,1.80
2017-12-21T18:19:19.071Z,6.60
2017-12-21T18:21:46.676Z,2.00
2017-12-21T18:24:14.266Z,3.80
2017-12-21T18:26:41.829Z,3.60
2017-12-21T18:29:10.232Z,23.13
2017-12-21T18:31:37.799Z,4.60
2017-12-21T18:34:05.391Z,7.23
2017-12-21T18:36:32.958Z,3.37
2017-12-21T18:39:00.547Z,1.93
2017-12-21T18:41:28.110Z,5.60
2017-12-21T18:46:30.405Z,7.17
2017-12-21T18:48:58.056Z,7.20
2017-12-21T18:51:26.393Z,7.60
2017-12-21T18:53:54.028Z,5.23
2017-12-21T18:56:21.650Z,3.23
2017-12-21T18:58:49.284Z,9.90
2017-12-21T19:01:16.854Z,12.47
2017-12-21T19:03:44.488Z,4.00
2017-12-21T19:06:12.125Z,11.23
2017-12-21T19:08:39.748Z,21.27
2017-12-21T19:11:07.390Z,20.43
2017-12-21T19:13:40.756Z,6.40
2017-12-21T19:16:10.587Z,10.70
2017-12-21T19:18:39.459Z,24.90
2017-12-21T19:21:10.120Z,15.83
2017-12-21T19:23:40.882Z,7.17
2017-12-21T19:26:09.297Z,8.53
2017-12-21T19:28:37.936Z,7.57
2017-12-21T19:31:06.180Z,8.67
2017-12-21T19:33:35.431Z,3.40
2017-12-21T19:36:03.742Z,2.47
2017-12-21T19:38:33.797Z,2.50
2017-12-21T19:41:03.039Z,3.80
2017-12-21T19:43:33.846Z,2.47
2017-12-21T19:46:02.321Z,4.80
2017-12-21T19:48:30.756Z,8.97
2017-12-21T19:50:58.581Z,4.57
2017-12-21T19:53:28.562Z,4.27
2017-12-21T19:55:56.908Z,5.43
2017-12-21T19:58:26.133Z,6.20
2017-12-21T20:00:54.764Z,6.77
2017-12-21T20:03:23.764Z,8.47
2017-12-21T20:05:52.815Z,13.33
2017-12-21T20:08:20.523Z,13.57
2017-12-21T20:10:48.166Z,10.87
2017-12-21T20:13:15.791Z,13.40
2017-12-21T20:15:43.387Z,14.20
2017-12-21T20:18:11.009Z,17.37
2017-12-21T20:20:38.646Z,11.17
2017-12-21T20:23:06.256Z,12.20
2017-12-21T20:25:34.670Z,8.10
2017-12-21T20:28:02.285Z,4.97
2017-12-21T20:30:29.935Z,6.67
2017-12-21T20:32:57.502Z,4.80
2017-12-21T20:35:25.140Z,4.70
2017-12-21T20:37:52.781Z,3.63
2017-12-21T20:40:20.397Z,3.70
2017-12-21T20:42:48.803Z,5.83
2017-12-21T20:45:16.416Z,9.30
2017-12-21T20:47:44.821Z,6.60
2017-12-21T20:50:12.390Z,4.27
2017-12-21T20:52:40.022Z,1.93
2017-12-21T20:55:08.359Z,3.77
2017-12-21T20:57:36.008Z,2.10
2017-12-21T21:00:03.632Z,3.27
2017-12-21T21:02:31.338Z,5.83
2017-12-21T21:04:58.942Z,5.70
2017-12-21T21:07:27.350Z,5.57
2017-12-21T21:09:54.972Z,4.80
2017-12-21T21:12:23.330Z,5.00
2017-12-21T21:14:50.903Z,3.00
2017-12-21T21:17:18.546Z,6.80
2017-12-21T21:19:46.176Z,8.57
2017-12-21T21:22:13.827Z,5.37
2017-12-21T21:24:42.164Z,4.40
2017-12-21T21:27:09.810Z,4.57
2017-12-21T21:29:37.388Z,10.80
2017-12-21T21:32:05.012Z,16.90
2017-12-21T21:34:32.631Z,4.00
2017-12-21T21:37:00.275Z,4.13
2017-12-21T21:39:27.891Z,3.93
2017-12-21T21:41:55.546Z,7.93
2017-12-21T21:44:23.171Z,4.70
2017-12-21T21:46:50.811Z,2.30
2017-12-21T21:49:19.198Z,3.50
2017-12-21T21:51:46.802Z,3.90
2017-12-21T21:54:14.403Z,59.03
2017-12-21T21:56:42.034Z,36.00
2017-12-21T21:59:09.682Z,52.80
2017-12-21T22:01:37.301Z,72.23
2017-12-21T22:04:04.981Z,21.57
2017-12-21T22:06:32.614Z,64.87
2017-12-21T22:09:00.263Z,93.17
2017-12-21T22:11:27.885Z,91.23
2017-12-21T22:13:55.531Z,74.50
2017-12-21T22:16:23.149Z,79.53
2017-12-21T22:18:50.794Z,69.23
2017-12-21T22:21:18.413Z,65.30
2017-12-21T22:23:46.066Z,56.00
2017-12-21T22:26:13.681Z,23.30
2017-12-21T22:28:41.278Z,12.57
2017-12-21T22:31:08.847Z,12.80
2017-12-21T22:33:36.493Z,29.57
2017-12-21T22:36:04.119Z,12.27
2017-12-21T22:38:31.762Z,11.70
2017-12-21T22:40:59.385Z,12.70
2017-12-21T22:43:27.024Z,11.80
2017-12-21T22:45:55.404Z,16.30
2017-12-21T22:48:23.815Z,13.80
2017-12-21T22:50:51.411Z,14.93
2017-12-21T22:53:19.045Z,12.83
2017-12-21T22:55:46.626Z,20.90
2017-12-21T22:58:14.217Z,17.53
2017-12-21T23:00:42.562Z,17.23
2017-12-21T23:03:10.208Z,16.37
2017-12-21T23:05:37.835Z,29.37
2017-12-21T23:08:05.467Z,27.40
2017-12-21T23:10:33.114Z,20.10
2017-12-21T23:13:00.687Z,17.23
2017-12-21T23:15:28.330Z,23.37
2017-12-21T23:17:55.945Z,19.43
2017-12-21T23:20:23.584Z,22.13
2017-12-21T23:22:51.965Z,30.33
2017-12-21T23:25:19.595Z,25.87
2017-12-21T23:27:47.217Z,34.57
2017-12-21T23:30:14.861Z,28.63
2017-12-21T23:32:42.471Z,24.77
2017-12-21T23:35:10.109Z,27.20
2017-12-21T23:37:37.723Z,27.03
2017-12-21T23:40:06.093Z,40.20
2017-12-21T23:42:34.443Z,22.43
2017-12-21T23:45:02.034Z,26.23
2017-12-21T23:47:30.420Z,24.83
2017-12-21T23:49:58.061Z,26.50
2017-12-21T23:52:25.634Z,20.20
2017-12-21T23:54:53.995Z,24.90
2017-12-21T23:57:22.426Z,19.03
2017-12-21T23:59:49.998Z,18.57
